地図

経路データ

SID SEASON NUMBER BASIN SUBBASIN NAME ISO_TIME NATURE LAT LON WMO_WIND WMO_PRES WMO_AGENCY TRACK_TYPE DIST2LAND LANDFALL IFLAG USA_AGENCY USA_ATCF_ID USA_LAT USA_LON USA_RECORD USA_STATUS USA_WIND USA_PRES USA_SSHS USA_R34_NE USA_R34_SE USA_R34_SW USA_R34_NW USA_R50_NE USA_R50_SE USA_R50_SW USA_R50_NW USA_R64_NE USA_R64_SE USA_R64_SW USA_R64_NW USA_POCI USA_ROCI USA_RMW USA_EYE TOKYO_LAT TOKYO_LON TOKYO_GRADE TOKYO_WIND TOKYO_PRES TOKYO_R50_DIR TOKYO_R50_LONG TOKYO_R50_SHORT TOKYO_R30_DIR TOKYO_R30_LONG TOKYO_R30_SHORT TOKYO_LAND CMA_LAT CMA_LON CMA_CAT CMA_WIND CMA_PRES HKO_LAT HKO_LON HKO_CAT HKO_WIND HKO_PRES NEWDELHI_LAT NEWDELHI_LON NEWDELHI_GRADE NEWDELHI_WIND NEWDELHI_PRES NEWDELHI_CI NEWDELHI_DP NEWDELHI_POCI REUNION_LAT REUNION_LON REUNION_TYPE REUNION_WIND REUNION_PRES REUNION_TNUM REUNION_CI REUNION_RMW REUNION_R34_NE REUNION_R34_SE REUNION_R34_SW REUNION_R34_NW REUNION_R50_NE REUNION_R50_SE REUNION_R50_SW REUNION_R50_NW REUNION_R64_NE REUNION_R64_SE REUNION_R64_SW REUNION_R64_NW BOM_LAT BOM_LON BOM_TYPE BOM_WIND BOM_PRES BOM_TNUM BOM_CI BOM_RMW BOM_R34_NE BOM_R34_SE BOM_R34_SW BOM_R34_NW BOM_R50_NE BOM_R50_SE BOM_R50_SW BOM_R50_NW BOM_R64_NE BOM_R64_SE BOM_R64_SW BOM_R64_NW BOM_ROCI BOM_POCI BOM_EYE BOM_POS_METHOD BOM_PRES_METHOD NADI_LAT NADI_LON NADI_CAT NADI_WIND NADI_PRES WELLINGTON_LAT WELLINGTON_LON WELLINGTON_WIND WELLINGTON_PRES DS824_LAT DS824_LON DS824_STAGE DS824_WIND DS824_PRES TD9636_LAT TD9636_LON TD9636_STAGE TD9636_WIND TD9636_PRES TD9635_LAT TD9635_LON TD9635_WIND TD9635_PRES TD9635_ROCI NEUMANN_LAT NEUMANN_LON NEUMANN_CLASS NEUMANN_WIND NEUMANN_PRES MLC_LAT MLC_LON MLC_CLASS MLC_WIND MLC_PRES USA_GUST BOM_GUST BOM_GUST_PER REUNION_GUST REUNION_GUST_PER USA_SEAHGT USA_SEARAD_NE USA_SEARAD_SE USA_SEARAD_SW USA_SEARAD_NW STORM_SPEED STORM_DIR
1869226N20276 1869 11 NA CS NOT_NAMED 1869-08-14 00:00:00 TS 19.6000 -84.5000 main 246 201 _____________O -1 19.6000 -84.5000 TD 30 10 320
1869226N20276 1869 11 NA CS NOT_NAMED 1869-08-14 03:00:00 TS 19.9901 -84.8497 main 201 161 _____________P -1 19.9901 -84.8497 TD 30 10 321
1869226N20276 1869 11 NA CS NOT_NAMED 1869-08-14 06:00:00 TS 20.4000 -85.2000 main 161 129 _____________O -1 20.4000 -85.2000 TD 30 11 322
1869226N20276 1869 11 NA CS NOT_NAMED 1869-08-14 09:00:00 TS 20.8424 -85.5502 main 119 83 _____________P -1 20.8424 -85.5502 TD 32 11 324
1869226N20276 1869 11 NA CS NOT_NAMED 1869-08-14 12:00:00 TS 21.3000 -85.9000 main 85 70 _____________O -1 21.3000 -85.9000 TS 35 11 324
1869226N20276 1869 11 NA GM NOT_NAMED 1869-08-14 15:00:00 TS 21.7575 -86.2576 main 76 76 _____________P -1 21.7575 -86.2576 TS 37 11 324
1869226N20276 1869 11 NA GM NOT_NAMED 1869-08-14 18:00:00 TS 22.2000 -86.6000 main 88 88 _____________O -1 22.2000 -86.6000 TS 40 10 326
1869226N20276 1869 11 NA GM NOT_NAMED 1869-08-14 21:00:00 TS 22.6147 -86.8780 main 123 123 _____________P -1 22.6147 -86.8780 TS 42 10 325
1869226N20276 1869 11 NA GM NOT_NAMED 1869-08-15 00:00:00 TS 23.0000 -87.2000 main 168 168 _____________O -1 23.0000 -87.2000 TS 45 10 315
1869226N20276 1869 11 NA GM NOT_NAMED 1869-08-15 03:00:00 TS 23.3501 -87.6702 main 212 212 _____________P -1 23.3501 -87.6702 TS 47 12 307
1869226N20276 1869 11 NA GM NOT_NAMED 1869-08-15 06:00:00 TS 23.7000 -88.2000 main 245 245 _____________O -1 23.7000 -88.2000 TS 50 12 308
1869226N20276 1869 11 NA GM NOT_NAMED 1869-08-15 09:00:00 TS 24.0998 -88.7001 main 290 290 _____________P -1 24.0998 -88.7001 TS 52 12 311
1869226N20276 1869 11 NA GM NOT_NAMED 1869-08-15 12:00:00 TS 24.5000 -89.2000 main 340 340 _____________O -1 24.5000 -89.2000 TS 55 12 310
1869226N20276 1869 11 NA GM NOT_NAMED 1869-08-15 15:00:00 TS 24.8498 -89.7005 main 385 385 _____________P -1 24.8498 -89.7005 TS 57 11 308
1869226N20276 1869 11 NA GM NOT_NAMED 1869-08-15 18:00:00 TS 25.2000 -90.2000 main 435 390 _____________O -1 25.2000 -90.2000 TS 60 12 310
1869226N20276 1869 11 NA GM NOT_NAMED 1869-08-15 21:00:00 TS 25.6147 -90.6925 main 390 315 _____________P -1 25.6147 -90.6925 TS 67 15 318
1869226N20276 1869 11 NA GM NOT_NAMED 1869-08-16 00:00:00 TS 26.3333 -91.3333 90 hurdat_atl main 315 285 O____________O hurdat_atl AL021869 27.0000 -91.6000 HU 90 2 26.0000 -91.2000 HU 75 15 314
1869226N20276 1869 11 NA GM NOT_NAMED 1869-08-16 03:00:00 TS 26.6876 -91.9214 main 285 281 P____________P AL021869 27.1029 -92.0998 HU 90 2 26.2724 -91.7430 HU 80 12 300
1869226N20276 1869 11 NA GM NOT_NAMED 1869-08-16 06:00:00 TS 26.9200 -92.4800 90 hurdat_atl main 290 272 O____________O hurdat_atl AL021869 27.2000 -92.6000 HU 90 2 26.5000 -92.3000 HU 85 11 293
1869226N20276 1869 11 NA GM NOT_NAMED 1869-08-16 09:00:00 TS 27.1115 -93.0169 main 276 252 P____________P AL021869 27.2923 -93.1002 HU 90 2 26.7498 -92.8503 HU 85 10 290
1869226N20276 1869 11 NA GM NOT_NAMED 1869-08-16 12:00:00 TS 27.2667 -93.5333 90 hurdat_atl main 252 213 O____________O hurdat_atl AL021869 27.4000 -93.6000 HU 90 2 27.0000 -93.4000 HU 85 10 290
1869226N20276 1869 11 NA GM NOT_NAMED 1869-08-16 15:00:00 TS 27.4498 -94.0500 main 208 169 P____________P AL021869 27.5498 -94.0999 HU 90 2 27.2498 -93.9502 HU 85 10 292
1869226N20276 1869 11 NA GM NOT_NAMED 1869-08-16 18:00:00 TS 27.6333 -94.5667 90 hurdat_atl main 164 125 O____________O hurdat_atl AL021869 27.7000 -94.6000 HU 90 2 27.5000 -94.5000 HU 85 10 290
1869226N20276 1869 11 NA GM NOT_NAMED 1869-08-16 21:00:00 TS 27.7881 -95.0835 main 125 87 P____________P AL021869 27.8073 -95.1002 HU 90 2 27.7498 -95.0503 HU 85 10 288
1869226N20276 1869 11 NA GM NOT_NAMED 1869-08-17 00:00:00 TS 27.9333 -95.6000 90 hurdat_atl main 87 44 O____________O hurdat_atl AL021869 27.9000 -95.6000 HU 90 2 28.0000 -95.6000 HU 85 10 290
1869226N20276 1869 11 NA GM NOT_NAMED 1869-08-17 03:00:00 TS 28.1086 -96.0986 main 44 14 P____________P AL021869 28.0268 -96.0729 HU 90 2 28.2723 -96.1499 HU 85 10 288
1869226N20276 1869 11 NA GM NOT_NAMED 1869-08-17 06:00:00 TS 28.2333 -96.6333 90 hurdat_atl main 14 0 O____________O hurdat_atl AL021869 28.1000 -96.6000 HU 90 2 28.5000 -96.7000 HU 85 10 282
1869226N20276 1869 11 NA GM NOT_NAMED 1869-08-17 07:00:00 TS 28.2510 -96.8287 90 hurdat_atl main 9 0 O____________P hurdat_atl AL021869 28.1000 -96.8000 L HU 90 2 28.5530 -96.8862 HU 80 10 277
1869226N20276 1869 11 NA NA NOT_NAMED 1869-08-17 09:00:00 TS 28.2942 -97.1789 main 0 0 P____________P AL021869 28.1263 -97.1395 HU 77 1 28.6299 -97.2578 HU 72 9 281
1869226N20276 1869 11 NA NA NOT_NAMED 1869-08-17 12:00:00 TS 28.4000 -97.6800 60 hurdat_atl main 0 0 O____________O hurdat_atl AL021869 28.2000 -97.6000 TS 60 0 28.7000 -97.8000 TS 60 10 283
1869226N20276 1869 11 NA NA NOT_NAMED 1869-08-17 15:00:00 TS 28.5080 -98.2346 main 0 0 P____________P AL021869 28.2587 -98.1616 TS 50 0 28.7572 -98.3077 TS 50 10 283
1869226N20276 1869 11 NA NA NOT_NAMED 1869-08-17 18:00:00 TS 28.6333 -98.8000 40 hurdat_atl main 0 0 O____________O hurdat_atl AL021869 28.3000 -98.8000 TS 40 0 28.8000 -98.8000 TS 40 10 288
1869226N20276 1869 11 NA NA NOT_NAMED 1869-08-17 21:00:00 TS 28.8121 -99.2857 main 0 0 _____________P AL021869 TS -1 28.8121 -99.2857 TS 35 9 287
1869226N20276 1869 11 NA NA NOT_NAMED 1869-08-18 00:00:00 TS 28.9000 -99.8000 main 0 0 _____________O -1 28.9000 -99.8000 TD 30 10 291
1869226N20276 1869 11 NA NA NOT_NAMED 1869-08-18 03:00:00 TS 29.1698 -100.377 main 0 0 _____________P -1 29.1698 -100.377 TD 30 12 300
1869226N20276 1869 11 NA NA NOT_NAMED 1869-08-18 06:00:00 TS 29.5000 -101.000 main 0 0 _____________O -1 29.5000 -101.000 TD 30 13 297
1869226N20276 1869 11 NA NA NOT_NAMED 1869-08-18 09:00:00 TS 29.7655 -101.702 main 0 0 _____________P -1 29.7655 -101.702 TD 30 12 294
1869226N20276 1869 11 NA NA NOT_NAMED 1869-08-18 12:00:00 TS 30.0000 -102.300 main 0 0 _____________O -1 30.0000 -102.300 TD 30 9 299
1869226N20276 1869 11 NA NA NOT_NAMED 1869-08-18 15:00:00 TS 30.2069 -102.618 main 0 0 _____________P -1 30.2069 -102.618 TD 27 6 313
1869226N20276 1869 11 NA NA NOT_NAMED 1869-08-18 18:00:00 TS 30.4000 -102.800 main 0 0 _____________O -1 30.4000 -102.800 TD 25 5 320
1869226N20276 1869 11 NA NA NOT_NAMED 1869-08-18 21:00:00 TS 30.5999 -103.000 main 0 0 _____________P -1 30.5999 -103.000 TD 25 5 319
1869226N20276 1869 11 NA NA NOT_NAMED 1869-08-19 00:00:00 TS 30.8000 -103.200 main 0 0 _____________O -1 30.8000 -103.200 TD 25 6 317
1869226N20276 1869 11 NA NA NOT_NAMED 1869-08-19 03:00:00 TS 31.0075 -103.450 main 0 0 _____________P -1 31.0075 -103.450 TD 25 6 313
1869226N20276 1869 11 NA NA NOT_NAMED 1869-08-19 06:00:00 TS 31.2000 -103.700 main 0 0 _____________O -1 31.2000 -103.700 TD 25 5 312
1869226N20276 1869 11 NA NA NOT_NAMED 1869-08-19 09:00:00 TS 31.3600 -103.912 main 0 0 _____________P -1 31.3600 -103.912 TD 22 5 311
1869226N20276 1869 11 NA NA NOT_NAMED 1869-08-19 12:00:00 ET 31.5000 -104.100 main 0 _____________O -1 31.5000 -104.100 EX 20 4 311

IBTrACS Databaseについて

本データベースは、米国NOAAが公開する1842年以降の世界の熱帯低気圧のベストトラックデータアーカイブInternational Best Track Archive for Climate Stewardship (IBTrACS)を、ウェブで閲覧しやすい形式に変換したものです。

最終更新日:2021-10-08